Terminal Aerodrome Forecast
Issued by NWS

Home | Current Version | Previous Version | Text Only | Print | Product List | Glossary On
Versions: 1 2 3 4 5 6 7 8 9 10 11 12 13 14 15 16 17 18 19 20 21 22 23 24
000
FTUS45 KGJT 221131
TAFMTJ
TAF
KMTJ 221131Z 2212/2312 13005KT P6SM SCT070
     FM221700 35004KT P6SM FEW250
     FM222000 32008KT P6SM FEW250
     FM230400 09007KT P6SM BKN080
     FM230700 13005KT P6SM SCT080=

USA.gov is the U.S. government's official web portal to all federal, state and local government web resources and services.